Home > Products > Valid Products > TAF

000
FTUS44 KFWD 271144
TAFFTW
TAF
KFTW 271144Z 2712/2812 VRB04KT P6SM BKN250
     FM271600 18010KT P6SM BKN020
     FM272000 18010KT P6SM VCTS BKN035CB
     FM280100 15010KT P6SM SCT040 BKN130
     FM280600 15010KT P6SM BKN015=



000
FTUS44 KFWD 271144
TAFDFW
TAF
KDFW 271144Z 2712/2818 VRB04KT P6SM BKN250
     FM271600 18010KT P6SM BKN020
     FM272000 18010KT P6SM VCTS BKN035CB
     FM280100 15010KT P6SM SCT040 BKN130
     FM280600 15010KT P6SM BKN015=



000
FTUS44 KFWD 271144
TAFACT
TAF
KACT 271144Z 2712/2812 VRB04KT P6SM BKN250
     FM271600 17010KT P6SM BKN020
     FM271900 16010KT P6SM BKN035
     FM272200 16014KT P6SM VCTS SCT015 BKN035CB
     FM280100 15010KT P6SM SCT040 BKN060
     FM280600 15010KT P6SM BKN015=



000
FTUS44 KFWD 271144
TAFDFW
TAF
KDFW 271144Z 2712/2818 VRB04KT P6SM BKN250
     FM271600 18010KT P6SM BKN020
     FM272000 18010KT P6SM VCTS BKN035CB
     FM280100 15010KT P6SM SCT040 BKN130
     FM280600 15010KT P6SM BKN015=



000
FTUS44 KFWD 271144
TAFACT
TAF
KACT 271144Z 2712/2812 VRB04KT P6SM BKN250
     FM271600 17010KT P6SM BKN020
     FM271900 16010KT P6SM BKN035
     FM272200 16014KT P6SM VCTS SCT015 BKN035CB
     FM280100 15010KT P6SM SCT040 BKN060
     FM280600 15010KT P6SM BKN015=



000
FTUS44 KFWD 271144
TAFFTW
TAF
KFTW 271144Z 2712/2812 VRB04KT P6SM BKN250
     FM271600 18010KT P6SM BKN020
     FM272000 18010KT P6SM VCTS BKN035CB
     FM280100 15010KT P6SM SCT040 BKN130
     FM280600 15010KT P6SM BKN015=



000
FTUS44 KFWD 271026 AAB
TAFACT
TAF AMD
KACT 271026Z 2710/2806 08007KT P6SM SCT120 BKN250
     FM271200 17008KT P6SM BKN250
     FM271600 17010KT P6SM BKN020
     FM271900 16010KT P6SM BKN035
     FM272200 16014KT P6SM VCTS SCT015 BKN035CB
     FM280100 15010KT P6SM SCT035 BKN050=



000
FTUS44 KFWD 271023 AAC
TAFDFW
TAF AMD
KDFW 271023Z 2710/2812 18007KT P6SM BKN250
     FM271600 18010KT P6SM BKN018
     FM272000 18010KT P6SM VCTS BKN035CB
     FM280100 15010KT P6SM SCT040 BKN130
     FM280600 15010KT P6SM BKN015=



000
FTUS44 KFWD 271023 AAC
TAFFTW
TAF AMD
KFTW 271023Z 2710/2806 18007KT P6SM BKN250
     FM271600 18010KT P6SM BKN018
     FM272000 18010KT P6SM VCTS BKN035CB
     FM280100 15010KT P6SM SCT040 BKN130=



000
FTUS44 KFWD 271023 AAC
TAFFTW
TAF AMD
KFTW 271023Z 2710/2806 18007KT P6SM BKN250
     FM271600 18010KT P6SM BKN018
     FM272000 18010KT P6SM VCTS BKN035CB
     FM280100 15010KT P6SM SCT040 BKN130=



000
FTUS44 KFWD 270803 AAB
TAFFTW
TAF AMD
KFTW 270803Z 2708/2806 17010KT P6SM SCT150 BKN250
     FM271000 17009KT 5SM BR BKN015
      TEMPO 2711/2714 3SM BR OVC007
     FM271600 18010KT P6SM OVC015
     FM272000 18010KT P6SM VCTS BKN035CB
     FM280100 15010KT P6SM SCT040 BKN130=



000
FTUS44 KFWD 270803 AAB
TAFDFW
TAF AMD
KDFW 270803Z 2708/2812 17010KT P6SM SCT150 BKN250
     FM271000 17009KT 5SM BR BKN015
      TEMPO 2711/2714 3SM BR OVC007
     FM271600 18010KT P6SM OVC015
     FM272000 18010KT P6SM VCTS BKN035CB
     FM280100 15010KT P6SM SCT040 BKN130
     FM280600 15010KT P6SM BKN015=



000
FTUS44 KFWD 270803 AAA
TAFACT
TAF AMD
KACT 270803Z 2708/2806 16009KT P6SM VCTS SCT040CB BKN120
      TEMPO 2708/2710 -TSRA BKN040CB
     FM271100 17008KT P6SM SCT120 BKN250
     FM271400 17010KT P6SM OVC015
     FM271800 16010KT P6SM BKN035
     FM272200 16014KT P6SM VCTS SCT015 BKN035CB
     FM280100 15010KT P6SM SCT035 BKN050=



000
FTUS44 KFWD 270636 AAA
TAFDFW
TAF AMD
KDFW 270636Z 2707/2812 17016KT P6SM VCTS SCT040CB BKN120
      TEMPO 2707/2709 18022G34KT P6SM -TSRA BKN040CB
     FM271000 17009KT 5SM BR BKN015
      TEMPO 2711/2714 3SM BR OVC007
     FM271600 18010KT P6SM OVC015
     FM272000 18010KT P6SM VCTS BKN035CB
     FM280100 15010KT P6SM SCT040 BKN130
     FM280600 15010KT P6SM BKN015=



000
FTUS44 KFWD 270636 AAA
TAFFTW
TAF AMD
KFTW 270636Z 2707/2806 17016KT P6SM VCTS SCT040CB BKN120
      TEMPO 2707/2709 18022G34KT P6SM -TSRA BKN040CB
     FM271000 17009KT 5SM BR BKN015
      TEMPO 2711/2714 3SM BR OVC007
     FM271600 18010KT P6SM OVC015
     FM272000 18010KT P6SM VCTS BKN035CB
     FM280100 15010KT P6SM SCT040 BKN130=



000
FTUS44 KFWD 270636 AAA
TAFDFW
TAF AMD
KDFW 270636Z 2707/2812 17016KT P6SM VCTS SCT040CB BKN120
      TEMPO 2707/2709 18022G34KT P6SM -TSRA BKN040CB
     FM271000 17009KT 5SM BR BKN015
      TEMPO 2711/2714 3SM BR OVC007
     FM271600 18010KT P6SM OVC015
     FM272000 18010KT P6SM VCTS BKN035CB
     FM280100 15010KT P6SM SCT040 BKN130
     FM280600 15010KT P6SM BKN015=



000
FTUS44 KFWD 270636 AAA
TAFFTW
TAF AMD
KFTW 270636Z 2707/2806 17016KT P6SM VCTS SCT040CB BKN120
      TEMPO 2707/2709 18022G34KT P6SM -TSRA BKN040CB
     FM271000 17009KT 5SM BR BKN015
      TEMPO 2711/2714 3SM BR OVC007
     FM271600 18010KT P6SM OVC015
     FM272000 18010KT P6SM VCTS BKN035CB
     FM280100 15010KT P6SM SCT040 BKN130=



000
FTUS44 KFWD 270520
TAFDFW
TAF
KDFW 270520Z 2706/2812 16012KT P6SM VCTS SCT040CB BKN120
      TEMPO 2706/2709 P6SM -TSRA BKN040CB
     FM271000 17009KT 5SM BR BKN015
      TEMPO 2711/2714 3SM BR OVC007
     FM271600 18010KT P6SM OVC015
     FM272000 18010KT P6SM VCTS BKN035CB
     FM280100 15010KT P6SM SCT040 BKN130
     FM280600 15010KT P6SM BKN015=



000
FTUS44 KFWD 270520
TAFFTW
TAF
KFTW 270520Z 2706/2806 16012KT P6SM VCTS SCT040CB BKN120
      TEMPO 2706/2709 P6SM -TSRA BKN040CB
     FM271000 17009KT 5SM BR BKN015
      TEMPO 2711/2714 3SM BR OVC007
     FM271600 18010KT P6SM OVC015
     FM272000 18010KT P6SM VCTS BKN035CB
     FM280100 15010KT P6SM SCT040 BKN130=



000
FTUS44 KFWD 270520
TAFACT
TAF
KACT 270520Z 2706/2806 15010KT P6SM VCTS BKN015CB
      TEMPO 2706/2710 3SM TSRA BKN008CB
     FM271400 17010KT P6SM OVC015
     FM271800 16010KT P6SM BKN035
     FM272200 16014KT P6SM VCTS SCT015 BKN035CB
     FM280100 15010KT P6SM SCT035 BKN050=



000
FTUS44 KFWD 270316 AAB
TAFACT
TAF AMD
KACT 270316Z 2703/2724 15010KT P6SM SCT040
     FM270600 16009KT P6SM VCTS BKN020CB
     FM270800 17008KT P6SM BKN008
      TEMPO 2708/2711 5SM TSRA BKN008CB
     FM271700 18010KT P6SM OVC015=



000
FTUS44 KFWD 270316 AAC
TAFFTW
TAF AMD
KFTW 270316Z 2703/2724 16010KT P6SM VCTS BKN040CB BKN250
      TEMPO 2703/2706 4SM TSRA BKN025CB
     FM270600 17009KT P6SM VCTS BKN025CB
     FM270900 17009KT 3SM BR OVC007
     FM271600 18010KT P6SM OVC015
     FM272000 18010KT P6SM VCTS BKN035CB=



000
FTUS44 KFWD 270316 AAC
TAFDFW
TAF AMD
KDFW 270316Z 2703/2806 16010KT P6SM VCTS BKN040CB BKN250
      TEMPO 2703/2706 4SM TSRA BKN025CB
     FM270600 17009KT P6SM VCTS BKN025CB
     FM270900 17009KT 3SM BR OVC007
     FM271600 18010KT P6SM OVC015
     FM272000 18010KT P6SM VCTS BKN035CB
     FM280100 15010KT P6SM SCT040 BKN130=



000
FTUS44 KFWD 270103 AAA
TAFACT
TAF AMD
KACT 270103Z 2701/2724 15010KT P6SM SCT040
     FM270400 16009KT P6SM BKN025
     FM270800 17008KT P6SM BKN008
     FM271700 18010KT P6SM OVC015=



000
FTUS44 KFWD 270103 AAA
TAFACT
TAF AMD
KACT 270103Z 2701/2724 15010KT P6SM SCT040
     FM270400 16009KT P6SM BKN025
     FM270800 17008KT P6SM BKN008
     FM271700 18010KT P6SM OVC015=



000
FTUS44 KFWD 270103 AAB
TAFFTW
TAF AMD
KFTW 270103Z 2701/2724 16010KT P6SM VCTS SCT040CB BKN250
      TEMPO 2701/2704 4SM TSRA BKN025CB
     FM270400 17009KT P6SM BKN025
     FM270900 17009KT 3SM BR OVC007
     FM271600 18010KT P6SM OVC015
     FM272000 18010KT P6SM VCTS BKN035CB=



000
FTUS44 KFWD 270103 AAB
TAFDFW
TAF AMD
KDFW 270103Z 2701/2806 16010KT P6SM VCTS SCT040CB BKN250
      TEMPO 2701/2704 4SM TSRA BKN025CB
     FM270400 17009KT P6SM BKN025
     FM270900 17009KT 3SM BR OVC007
     FM271600 18010KT P6SM OVC015
     FM272000 18010KT P6SM VCTS BKN035CB
     FM280100 15010KT P6SM SCT040 BKN130=



000
FTUS44 KFWD 270053 AAA
TAFDFW
TAF AMD
KDFW 270053Z 2701/2806 16010KT P6SM VCTS SCT040CB BKN250
     FM270400 17009KT P6SM BKN025
     FM270900 17009KT 3SM BR OVC007
     FM271600 18010KT P6SM OVC015
     FM272000 18010KT P6SM VCTS BKN035CB
     FM280100 15010KT P6SM SCT040 BKN130=



000
FTUS44 KFWD 270053 AAA
TAFDFW
TAF AMD
KDFW 270053Z 2701/2806 16010KT P6SM VCTS SCT040CB BKN250
     FM270400 17009KT P6SM BKN025
     FM270900 17009KT 3SM BR OVC007
     FM271600 18010KT P6SM OVC015
     FM272000 18010KT P6SM VCTS BKN035CB
     FM280100 15010KT P6SM SCT040 BKN130=



000
FTUS44 KFWD 270053 AAA
TAFFTW
TAF AMD
KFTW 270053Z 2701/2724 16010KT P6SM VCTS SCT040CB BKN250
     FM270400 17009KT P6SM BKN025
     FM270900 17009KT 3SM BR OVC007
     FM271600 18010KT P6SM OVC015
     FM272000 18010KT P6SM VCTS BKN035CB=



000
FTUS44 KFWD 262331
TAFDFW
TAF
KDFW 262331Z 2700/2806 16010KT P6SM SCT040 BKN250
     FM270200 16010KT P6SM VCTS SCT040CB BKN250
     FM270400 17009KT P6SM BKN025
     FM270900 17009KT 3SM BR OVC007
     FM271600 18010KT P6SM OVC015
     FM272000 18010KT P6SM VCTS BKN035CB
     FM280100 15010KT P6SM SCT040 BKN130=



000
FTUS44 KFWD 262331
TAFACT
TAF
KACT 262331Z 2700/2724 17012KT P6SM SCT040
     FM270400 17009KT P6SM BKN025
     FM270800 17008KT P6SM BKN008
     FM271700 18010KT P6SM OVC015=



000
FTUS44 KFWD 262331
TAFFTW
TAF
KFTW 262331Z 2700/2724 16010KT P6SM SCT040 BKN250
     FM270200 16010KT P6SM VCTS SCT040CB BKN250
     FM270400 17009KT P6SM BKN025
     FM270900 17009KT 3SM BR OVC007
     FM271600 18010KT P6SM OVC015
     FM272000 18010KT P6SM VCTS BKN035CB=



000
FTUS44 KFWD 262054 AAA
TAFACT
TAF AMD
KACT 262054Z 2621/2718 17010KT P6SM SCT040
     FM270400 17009KT P6SM BKN025
     FM270800 17008KT P6SM BKN008
     FM271700 18010KT P6SM OVC015=



000
FTUS44 KFWD 262054 AAA
TAFDFW
TAF AMD
KDFW 262054Z 2621/2724 14010KT P6SM SCT030 BKN300
     FM270000 16010KT P6SM VCTS SCT040CB BKN100
     FM270400 17009KT P6SM BKN025
     FM270900 18009KT P6SM OVC012
     FM271100 17009KT 3SM BR OVC007
     FM271700 18010KT P6SM OVC015
     FM272000 18010KT P6SM BKN035=



000
FTUS44 KFWD 262054 AAA
TAFFTW
TAF AMD
KFTW 262054Z 2621/2718 14009KT P6SM SCT030 BKN300
     FM270000 16010KT P6SM VCTS SCT040CB BKN100
     FM270400 17009KT P6SM BKN025
     FM270900 18009KT P6SM OVC012
     FM271100 17009KT 3SM BR OVC007
     FM271700 18010KT P6SM OVC015=



000
FTUS44 KFWD 261746 CCA
TAFACT
TAF COR
KACT 261746Z 2618/2718 19012KT P6SM OVC018
     FM262000 18010KT P6SM BKN035
     FM262200 17013KT P6SM SCT035 BKN300
     FM270100 15009KT P6SM VCTS SCT035CB BKN100
     FM270400 17009KT P6SM BKN025
     FM270800 17008KT P6SM BKN008
     FM271700 18010KT P6SM OVC015=



000
FTUS44 KFWD 261746 CCA
TAFACT
TAF COR
KACT 261746Z 2618/2718 19012KT P6SM OVC018
     FM262000 18010KT P6SM BKN035
     FM262200 17013KT P6SM SCT035 BKN300
     FM270100 15009KT P6SM VCTS SCT035CB BKN100
     FM270400 17009KT P6SM BKN025
     FM270800 17008KT P6SM BKN008
     FM271700 18010KT P6SM OVC015=



000
FTUS44 KFWD 261731
TAFACT
TAF
KACT 261731Z 2618/2718 14010KT P6SM OVC018
     FM262000 18010KT P6SM BKN035
     FM262200 17013KT P6SM VCTS SCT035CB BKN300
     FM270100 15009KT P6SM SCT035 BKN100
     FM270800 17008KT P6SM BKN008
     FM271700 18010KT P6SM OVC015=



000
FTUS44 KFWD 261731
TAFFTW
TAF
KFTW 261731Z 2618/2718 17009KT P6SM SCT005 BKN015
      TEMPO 2618/2619 5SM -DZ BR OVC009
     FM262000 18012KT P6SM SCT035 BKN300
     FM270100 16010KT P6SM VCTS SCT040CB BKN100
     FM270400 17009KT P6SM BKN025
     FM270900 18009KT P6SM OVC012
     FM271100 17009KT 3SM BR OVC007
     FM271700 18010KT P6SM OVC015=



000
FTUS44 KFWD 261731
TAFDFW
TAF
KDFW 261731Z 2618/2724 17009KT 6SM BR SCT005 BKN015
      TEMPO 2618/2619 3SM -DZ BR OVC005
     FM262000 18012KT P6SM SCT035 BKN300
     FM270100 16010KT P6SM VCTS SCT040CB BKN100
     FM270400 17009KT P6SM BKN025
     FM270900 18009KT P6SM OVC012
     FM271100 17009KT 3SM BR OVC007
     FM271700 18010KT P6SM OVC015
     FM272000 18010KT P6SM BKN035=



000
FTUS44 KFWD 261501 AAA
TAFACT
TAF AMD
KACT 261501Z 2615/2712 14010KT P6SM OVC011
     FM261800 18010KT P6SM BKN035
     FM262200 17013KT P6SM VCTS SCT035CB BKN300
     FM270100 15009KT P6SM SCT035 BKN100
     FM270800 17008KT P6SM BKN008=



000
FTUS44 KFWD 261501 AAA
TAFDFW
TAF AMD
KDFW 261501Z 2615/2718 17009KT 2SM -DZ BR OVC006
     FM261700 17010KT P6SM BKN015
     FM261800 18010KT P6SM BKN035
     FM262100 18012KT P6SM VCTS SCT035CB BKN300
     FM270200 16010KT P6SM SCT040 BKN100
     FM270900 18009KT P6SM BKN012=



000
FTUS44 KFWD 261501 AAA
TAFFTW
TAF AMD
KFTW 261501Z 2615/2712 17009KT 2SM BR OVC004
     FM261700 17010KT P6SM BKN015
     FM261800 18010KT P6SM BKN035
     FM262100 18012KT P6SM VCTS SCT035CB BKN300
     FM270200 16010KT P6SM SCT040 BKN100
     FM270900 18009KT P6SM BKN012=



000
FTUS44 KFWD 261130
TAFDFW
TAF
KDFW 261130Z 2612/2718 17009KT 5SM BR OVC006
      TEMPO 2612/2614 2SM -DZ BR OVC004
     FM261500 17010KT P6SM BKN015
     FM261800 18010KT P6SM BKN035
     FM262100 18012KT P6SM VCTS SCT035CB BKN300
     FM270200 16010KT P6SM SCT040 BKN100
     FM270900 18009KT P6SM BKN012=



000
FTUS44 KFWD 261130
TAFFTW
TAF
KFTW 261130Z 2612/2712 17009KT 5SM BR OVC006
      TEMPO 2612/2614 2SM -DZ BR OVC002
     FM261500 17010KT P6SM BKN015
     FM261800 18010KT P6SM BKN035
     FM262100 18012KT P6SM VCTS SCT035CB BKN300
     FM270200 16010KT P6SM SCT040 BKN100
     FM270900 18009KT P6SM BKN012=



000
FTUS44 KFWD 261130
TAFACT
TAF
KACT 261130Z 2612/2712 14010KT 2SM BR OVC003
      TEMPO 2612/2614 1/2SM FG OVC002
     FM261500 17012KT P6SM BKN015
     FM262200 17013KT P6SM VCTS SCT035CB BKN300
     FM270100 15009KT P6SM SCT035 BKN100
     FM270800 17008KT P6SM BKN008=



000
FTUS44 KFWD 260914 AAB
TAFDFW
TAF AMD
KDFW 260914Z 2609/2712 16008KT 4SM BR OVC008
      TEMPO 2610/2613 1SM BR OVC004
     FM261500 17010KT P6SM BKN015
     FM261800 19010KT P6SM BKN035
     FM262100 18012KT P6SM VCTS SCT035CB
     FM270100 17010KT P6SM SCT035 BKN100
     FM270900 17011KT P6SM BKN012=



000
FTUS44 KFWD 260914 AAB
TAFFTW
TAF AMD
KFTW 260914Z 2609/2706 15006KT 3SM BR OVC008
      TEMPO 2609/2613 1/2SM FG OVC003
     FM261500 17010KT P6SM BKN015
     FM261800 19010KT P6SM BKN035
     FM262100 18012KT P6SM VCTS SCT035CB
     FM270100 17010KT P6SM SCT035 BKN100=



000
FTUS44 KFWD 260914 AAB
TAFACT
TAF AMD
KACT 260914Z 2609/2706 15006KT 3SM BR OVC003
      TEMPO 2610/2613 1/2SM FG OVC002
     FM261400 17011KT P6SM BKN015
     FM262200 17015KT P6SM VCTS SCT035CB
     FM270100 17010KT P6SM SCT035 BKN100=



000
FTUS44 KFWD 260914 AAB
TAFDFW
TAF AMD
KDFW 260914Z 2609/2712 16008KT 4SM BR OVC008
      TEMPO 2610/2613 1SM BR OVC004
     FM261500 17010KT P6SM BKN015
     FM261800 19010KT P6SM BKN035
     FM262100 18012KT P6SM VCTS SCT035CB
     FM270100 17010KT P6SM SCT035 BKN100
     FM270900 17011KT P6SM BKN012=



000
FTUS44 KFWD 260914 AAB
TAFFTW
TAF AMD
KFTW 260914Z 2609/2706 15006KT 3SM BR OVC008
      TEMPO 2609/2613 1/2SM FG OVC003
     FM261500 17010KT P6SM BKN015
     FM261800 19010KT P6SM BKN035
     FM262100 18012KT P6SM VCTS SCT035CB
     FM270100 17010KT P6SM SCT035 BKN100=



000
FTUS44 KFWD 260914 AAB
TAFACT
TAF AMD
KACT 260914Z 2609/2706 15006KT 3SM BR OVC003
      TEMPO 2610/2613 1/2SM FG OVC002
     FM261400 17011KT P6SM BKN015
     FM262200 17015KT P6SM VCTS SCT035CB
     FM270100 17010KT P6SM SCT035 BKN100=



000
FTUS44 KFWD 260825 AAA
TAFDFW
TAF AMD
KDFW 260825Z 2608/2712 16006KT 3SM BR OVC004
      TEMPO 2609/2613 1SM BR OVC004
     FM261500 17010KT P6SM BKN015
     FM261800 19010KT P6SM BKN035
     FM262100 18012KT P6SM VCTS SCT035CB
     FM270100 17010KT P6SM SCT035 BKN100
     FM270900 17011KT P6SM BKN012=



000
FTUS44 KFWD 260825 AAA
TAFFTW
TAF AMD
KFTW 260825Z 2608/2706 15006KT 4SM BR SCT007 BKN300
     FM261000 16008KT 3SM BR OVC008
      TEMPO 2610/2613 1SM BR OVC004
     FM261500 17010KT P6SM BKN015
     FM261800 19010KT P6SM BKN035
     FM262100 18012KT P6SM VCTS SCT035CB
     FM270100 17010KT P6SM SCT035 BKN100=



000
FTUS44 KFWD 260825 AAA
TAFACT
TAF AMD
KACT 260825Z 2608/2706 15006KT 3SM BR OVC004
      TEMPO 2609/2613 1/2SM FG OVC002
     FM261400 17011KT P6SM BKN015
     FM262200 17015KT P6SM VCTS SCT035CB
     FM270100 17010KT P6SM SCT035 BKN100=



000
FTUS44 KFWD 260825 AAA
TAFFTW
TAF AMD
KFTW 260825Z 2608/2706 15006KT 4SM BR SCT007 BKN300
     FM261000 16008KT 3SM BR OVC008
      TEMPO 2610/2613 1SM BR OVC004
     FM261500 17010KT P6SM BKN015
     FM261800 19010KT P6SM BKN035
     FM262100 18012KT P6SM VCTS SCT035CB
     FM270100 17010KT P6SM SCT035 BKN100=



000
FTUS44 KFWD 260825 AAA
TAFDFW
TAF AMD
KDFW 260825Z 2608/2712 16006KT 3SM BR OVC004
      TEMPO 2609/2613 1SM BR OVC004
     FM261500 17010KT P6SM BKN015
     FM261800 19010KT P6SM BKN035
     FM262100 18012KT P6SM VCTS SCT035CB
     FM270100 17010KT P6SM SCT035 BKN100
     FM270900 17011KT P6SM BKN012=



000
FTUS44 KFWD 260825 AAA
TAFACT
TAF AMD
KACT 260825Z 2608/2706 15006KT 3SM BR OVC004
      TEMPO 2609/2613 1/2SM FG OVC002
     FM261400 17011KT P6SM BKN015
     FM262200 17015KT P6SM VCTS SCT035CB
     FM270100 17010KT P6SM SCT035 BKN100=



000
FTUS44 KFWD 260520
TAFFTW
TAF
KFTW 260520Z 2606/2706 15010KT P6SM SCT008 BKN250
     FM260700 15006KT 3SM BR SCT008 BKN015
      TEMPO 2609/2613 1SM BR BKN008
     FM261500 17010KT P6SM BKN015
     FM261800 19010KT P6SM BKN035
     FM262100 18012KT P6SM VCTS SCT035CB
     FM270100 17010KT P6SM SCT035 BKN100=



000
FTUS44 KFWD 260520
TAFDFW
TAF
KDFW 260520Z 2606/2712 15010KT P6SM SCT008 BKN250
     FM260700 15006KT 3SM BR SCT008 BKN015
      TEMPO 2609/2613 1SM BR BKN008
     FM261500 17010KT P6SM BKN015
     FM261800 19010KT P6SM BKN035
     FM262100 18012KT P6SM VCTS SCT035CB
     FM270100 17010KT P6SM SCT035 BKN100
     FM270900 17011KT P6SM BKN012=



000
FTUS44 KFWD 260520
TAFACT
TAF
KACT 260520Z 2606/2706 13008KT P6SM OVC006
     FM260800 14005KT 1SM BR OVC004
      TEMPO 2609/2613 1/2SM FG OVC002
     FM261400 17011KT P6SM BKN015
     FM262200 17015KT P6SM VCTS SCT035CB
     FM270100 17010KT P6SM SCT035 BKN100=



000
FTUS44 KFWD 260520
TAFFTW
TAF
KFTW 260520Z 2606/2706 15010KT P6SM SCT008 BKN250
     FM260700 15006KT 3SM BR SCT008 BKN015
      TEMPO 2609/2613 1SM BR BKN008
     FM261500 17010KT P6SM BKN015
     FM261800 19010KT P6SM BKN035
     FM262100 18012KT P6SM VCTS SCT035CB
     FM270100 17010KT P6SM SCT035 BKN100=



000
FTUS44 KFWD 260520
TAFACT
TAF
KACT 260520Z 2606/2706 13008KT P6SM OVC006
     FM260800 14005KT 1SM BR OVC004
      TEMPO 2609/2613 1/2SM FG OVC002
     FM261400 17011KT P6SM BKN015
     FM262200 17015KT P6SM VCTS SCT035CB
     FM270100 17010KT P6SM SCT035 BKN100=



000
FTUS44 KFWD 260520
TAFDFW
TAF
KDFW 260520Z 2606/2712 15010KT P6SM SCT008 BKN250
     FM260700 15006KT 3SM BR SCT008 BKN015
      TEMPO 2609/2613 1SM BR BKN008
     FM261500 17010KT P6SM BKN015
     FM261800 19010KT P6SM BKN035
     FM262100 18012KT P6SM VCTS SCT035CB
     FM270100 17010KT P6SM SCT035 BKN100
     FM270900 17011KT P6SM BKN012=



000
FTUS44 KFWD 260321 AAC
TAFACT
TAF AMD
KACT 260321Z 2603/2624 13008KT P6SM OVC006
      TEMPO 2604/2607 3SM BR OVC005
     FM260700 14005KT 1SM BR OVC003
      TEMPO 2608/2612 1/2SM FG OVC001
     FM261400 17011KT P6SM BKN015
     FM262000 17015KT P6SM VCTS SCT020CB BKN035=



000
FTUS44 KFWD 260321 AAA
TAFDFW
TAF AMD
KDFW 260321Z 2603/2706 15010KT P6SM SCT008 BKN250
     FM260600 15006KT 5SM BR SCT008 BKN015
      TEMPO 2606/2610 BKN008 OVC015
     FM261500 17010KT P6SM BKN015
     FM261800 19010KT P6SM BKN035
     FM262100 18012KT P6SM VCTS SCT040CB OVC100
     FM270100 17010KT P6SM SCT050 BKN100=



000
FTUS44 KFWD 260321 AAA
TAFDFW
TAF AMD
KDFW 260321Z 2603/2706 15010KT P6SM SCT008 BKN250
     FM260600 15006KT 5SM BR SCT008 BKN015
      TEMPO 2606/2610 BKN008 OVC015
     FM261500 17010KT P6SM BKN015
     FM261800 19010KT P6SM BKN035
     FM262100 18012KT P6SM VCTS SCT040CB OVC100
     FM270100 17010KT P6SM SCT050 BKN100=



000
FTUS44 KFWD 260321 AAA
TAFFTW
TAF AMD
KFTW 260321Z 2603/2624 15010KT P6SM SCT008 BKN250
     FM260600 15006KT 5SM BR SCT008 BKN015
      TEMPO 2606/2610 BKN008 OVC015
     FM261500 17010KT P6SM BKN015
     FM261800 19010KT P6SM BKN035
     FM262100 18012KT P6SM VCTS SCT040CB OVC100=



000
FTUS44 KFWD 260227 AAB
TAFACT
TAF AMD
KACT 260227Z 2602/2624 13008KT P6SM OVC004
     FM260330 14006KT 5SM BR OVC004
      TEMPO 2604/2607 2SM BR
     FM260700 14005KT 1SM BR OVC003
      TEMPO 2608/2612 1/2SM FG OVC001
     FM261400 17011KT P6SM BKN015
     FM262000 17015KT P6SM VCTS SCT020CB BKN035=



000
FTUS44 KFWD 260158 AAA
TAFACT
TAF AMD
KACT 260158Z 2602/2624 13008KT P6SM BKN006
     FM260330 14006KT 5SM BR OVC005
      TEMPO 2604/2607 2SM BR
     FM260700 14005KT 1SM BR OVC005
      TEMPO 2608/2612 1/2SM FG OVC002
     FM261400 17011KT P6SM BKN015
     FM262000 17015KT P6SM VCTS SCT020CB BKN035=



000
FTUS44 KFWD 260158 AAA
TAFACT
TAF AMD
KACT 260158Z 2602/2624 13008KT P6SM BKN006
     FM260330 14006KT 5SM BR OVC005
      TEMPO 2604/2607 2SM BR
     FM260700 14005KT 1SM BR OVC005
      TEMPO 2608/2612 1/2SM FG OVC002
     FM261400 17011KT P6SM BKN015
     FM262000 17015KT P6SM VCTS SCT020CB BKN035=



000
FTUS44 KFWD 252349
TAFDFW
TAF
KDFW 252349Z 2600/2706 15010KT P6SM SCT020 BKN150
     FM261100 17011KT P6SM BKN015
     FM261800 19010KT P6SM BKN035
     FM262100 18012KT P6SM VCTS SCT040CB OVC100
     FM270100 17010KT P6SM SCT050 BKN100=



000
FTUS44 KFWD 252349
TAFACT
TAF
KACT 252349Z 2600/2624 17010KT P6SM SCT025 BKN120
     FM260900 17011KT P6SM BKN015
     FM262000 17015KT P6SM VCTS SCT020CB BKN035=



000
FTUS44 KFWD 252349
TAFFTW
TAF
KFTW 252349Z 2600/2624 15010KT P6SM SCT020 BKN150
     FM261100 17011KT P6SM BKN015
     FM261800 19010KT P6SM BKN035
     FM262100 18012KT P6SM VCTS SCT040CB OVC100=



000
FTUS44 KFWD 252113 CCA
TAFFTW
TAF COR
KFTW 252113Z 2521/2618 22014KT 6SM -RA SCT025 OVC100
     FM252200 22011KT P6SM SCT025 BKN050
     FM261100 17011KT P6SM BKN015=



000
FTUS44 KFWD 252113 CCA
TAFDFW
TAF COR
KDFW 252113Z 2521/2624 05010KT 5SM -RA BR SCT025 OVC100
      TEMPO 2521/2522 5SM TSRA BKN025CB
     FM252200 22011KT P6SM SCT025 BKN050
     FM261100 17011KT P6SM BKN015
     FM261800 19010KT P6SM BKN035=



000
FTUS44 KFWD 252102 AAB
TAFACT
TAF AMD
KACT 252102Z 2521/2618 18015KT 6SM -TSRA BKN035CB
      TEMPO 2521/2523 2SM TSRA OVC010CB
     FM260000 22011KT P6SM SCT025 BKN050
     FM260900 17011KT P6SM BKN015=



000
FTUS44 KFWD 252102 AAA
TAFFTW
TAF AMD
KFTW 252102Z 2521/2618 22014KT 6SM -RA SCT025 OVC100
      TEMPO 2521/2522 26020G30KT 2SM TSRA OVC020CB
     FM252200 22011KT P6SM SCT025 BKN050
     FM261100 17011KT P6SM BKN015=



000
FTUS44 KFWD 252102 AAA
TAFDFW
TAF AMD
KDFW 252102Z 2521/2624 22014KT 5SM -RA BR SCT025 OVC100
      TEMPO 2521/2522 26020G30KT 2SM TSRA OVC020CB
     FM252200 22011KT P6SM SCT025 BKN050
     FM261100 17011KT P6SM BKN015
     FM261800 19010KT P6SM BKN035=



000
FTUS44 KFWD 251943 AAA
TAFACT
TAF AMD
KACT 251943Z 2520/2618 18015KT 6SM -TSRA BKN035CB
      TEMPO 2520/2522 VRB20G35KT 2SM +TSRA OVC010CB
     FM260000 22011KT P6SM SCT025 BKN050
     FM260900 17011KT P6SM BKN015=



000
FTUS44 KFWD 251724
TAFFTW
TAF
KFTW 251724Z 2518/2618 16015KT 6SM -SHRA VCTS BKN028CB OVC080
      TEMPO 2519/2521 26020G30KT 2SM +TSRA OVC010CB
     FM252200 22011KT P6SM SCT025 BKN050
     FM261100 17011KT P6SM BKN015=



000
FTUS44 KFWD 251724
TAFDFW
TAF
KDFW 251724Z 2518/2624 16015KT 6SM -SHRA VCTS BKN028CB
     FM251900 21011KT 4SM TSRA BKN030CB OVC080
      TEMPO 2519/2521 26020G30KT 2SM +TSRA OVC010CB
     FM252300 22011KT P6SM SCT025 BKN050
     FM261100 17011KT P6SM BKN015
     FM261800 19010KT P6SM BKN035=



000
FTUS44 KFWD 251724
TAFACT
TAF
KACT 251724Z 2518/2618 18015KT 6SM -SHRA VCTS BKN030CB
      TEMPO 2518/2522 VRB20G30KT 2SM +TSRA OVC010CB
     FM260000 22011KT P6SM SCT025 BKN050
     FM260900 17011KT P6SM BKN015=



000
FTUS44 KFWD 251504 AAA
TAFFTW
TAF AMD
KFTW 251504Z 2515/2612 16013KT P6SM BKN015
     FM251700 18015KT 6SM -SHRA VCTS BKN030CB
     FM251800 21011KT 4SM TSRA BKN020CB OVC080
      TEMPO 2518/2520 26020G30KT 2SM +TSRA OVC010CB
     FM252200 22011KT P6SM SCT025 BKN050
     FM260900 17011KT P6SM BKN015=



000
FTUS44 KFWD 251504 AAA
TAFDFW
TAF AMD
KDFW 251504Z 2515/2618 16013KT P6SM BKN015
     FM251800 18015KT 6SM -SHRA VCTS BKN030CB
     FM251900 21011KT 4SM TSRA BKN020CB OVC080
      TEMPO 2519/2521 26020G30KT 2SM +TSRA OVC010CB
     FM252300 22011KT P6SM SCT025 BKN050
     FM260900 17011KT P6SM BKN015=



000
FTUS44 KFWD 251504 AAA
TAFACT
TAF AMD
KACT 251504Z 2515/2612 16013KT P6SM BKN015
     FM251800 18015KT 6SM -SHRA VCTS BKN030CB
     FM252000 21011KT 4SM TSRA BKN020CB OVC080
      TEMPO 2520/2522 VRB20G30KT 2SM +TSRA OVC010CB
     FM260000 22011KT P6SM SCT025 BKN050
     FM260800 17011KT P6SM BKN015=



000
FTUS44 KFWD 251140
TAFFTW
TAF
KFTW 251140Z 2512/2612 17009KT P6SM SCT007 OVC011
      TEMPO 2512/2514 5SM -DZ BR BKN008
     FM251500 17013KT P6SM BKN015
     FM251700 18015KT 5SM -SHRA VCTS SCT025 OVC035CB
      TEMPO 2517/2520 2SM TSRA BKN020CB
     FM252100 22011KT P6SM SCT025 BKN050
     FM260600 17011KT P6SM BKN020
     FM261000 19008KT P6SM BKN009=



000
FTUS44 KFWD 251140
TAFDFW
TAF
KDFW 251140Z 2512/2618 17009KT P6SM SCT007 OVC011
      TEMPO 2512/2514 5SM -DZ BR BKN008
     FM251500 17013KT P6SM BKN015
     FM251800 18015KT 5SM -SHRA VCTS SCT025 OVC035CB
      TEMPO 2519/2521 2SM TSRA BKN020CB
     FM252200 22011KT P6SM SCT025 BKN050
     FM260600 17011KT P6SM BKN020
     FM261000 19008KT P6SM BKN009=



000
FTUS44 KFWD 251140
TAFACT
TAF
KACT 251140Z 2512/2612 16008KT P6SM OVC008
      TEMPO 2512/2514 5SM -DZ BR OVC005
     FM251400 17014KT P6SM BKN016
     FM251800 22011KT 5SM -SHRA VCTS SCT025 OVC035CB
      TEMPO 2519/2522 2SM TSRA BR BKN020CB
     FM252200 18011KT P6SM SCT025 OVC100
     FM260500 16010KT P6SM BKN020
     FM260800 19008KT P6SM BKN007=



000
FTUS44 KFWD 251043 CCA
TAFACT
TAF COR
KACT 251043Z 2511/2606 15009KT P6SM -RA OVC007
     FM251600 17014KT P6SM BKN016
     FM251800 22011KT 3SM SHRA VCTS OVC022CB
     FM252100 18011KT P6SM SCT025 OVC100
     FM260300 16010KT P6SM OVC022=



000
FTUS44 KFWD 251043 CCA
TAFDFW
TAF COR
KDFW 251043Z 2511/2612 17008KT P6SM OVC008
      TEMPO 2512/2514 5SM BR
     FM251500 17013KT P6SM BKN015
     FM251900 18015KT 3SM SHRA VCTS OVC022CB
     FM252200 22011KT P6SM SCT025 OVC100
     FM260300 16011KT P6SM VCTS OVC018CB
     FM260600 16010KT P6SM OVC022=



000
FTUS44 KFWD 251043 CCA
TAFFTW
TAF COR
KFTW 251043Z 2511/2606 17008KT P6SM OVC008
      TEMPO 2512/2514 5SM BR
     FM251500 17013KT P6SM BKN015
     FM251900 18015KT 3SM SHRA VCTS OVC022CB
     FM252200 22011KT P6SM SCT025 OVC100
     FM260300 16011KT P6SM VCTS OVC018CB=



000
FTUS44 KFWD 251043 CCA
TAFDFW
TAF COR
KDFW 251043Z 2511/2612 17008KT P6SM OVC008
      TEMPO 2512/2514 5SM BR
     FM251500 17013KT P6SM BKN015
     FM251900 18015KT 3SM SHRA VCTS OVC022CB
     FM252200 22011KT P6SM SCT025 OVC100
     FM260300 16011KT P6SM VCTS OVC018CB
     FM260600 16010KT P6SM OVC022=



000
FTUS44 KFWD 251043 CCA
TAFACT
TAF COR
KACT 251043Z 2511/2606 15009KT P6SM -RA OVC007
     FM251600 17014KT P6SM BKN016
     FM251800 22011KT 3SM SHRA VCTS OVC022CB
     FM252100 18011KT P6SM SCT025 OVC100
     FM260300 16010KT P6SM OVC022=



000
FTUS44 KFWD 251043 CCA
TAFFTW
TAF COR
KFTW 251043Z 2511/2606 17008KT P6SM OVC008
      TEMPO 2512/2514 5SM BR
     FM251500 17013KT P6SM BKN015
     FM251900 18015KT 3SM SHRA VCTS OVC022CB
     FM252200 22011KT P6SM SCT025 OVC100
     FM260300 16011KT P6SM VCTS OVC018CB=



000
FTUS44 KFWD 250903 AAA
TAFDFW
TAF AMD
KDFW 250903Z 2509/2612 17008KT P6SM SCT008 BKN012
     FM251100 15010KT 5SM BR BKN008
     FM251500 17013KT P6SM BKN015
     FM251900 18015KT 3SM SHRA VCTS OVC022CB
     FM252200 22011KT P6SM SCT025 OVC100
     FM260300 16011KT P6SM VCTS OVC018CB
     FM260600 16010KT P6SM OVC022=



000
FTUS44 KFWD 250903 AAA
TAFACT
TAF AMD
KACT 250903Z 2509/2606 16009KT P6SM OVC010
     FM251100 15009KT 5SM BR BKN008
     FM251600 17014KT P6SM BKN016
     FM251800 22011KT 3SM SHRA VCTS OVC022CB
     FM252100 18011KT P6SM SCT025 OVC100
     FM260300 16010KT P6SM OVC022=



000
FTUS44 KFWD 250903 AAA
TAFFTW
TAF AMD
KFTW 250903Z 2509/2606 17008KT P6SM SCT008 BKN012
     FM251100 15010KT 5SM BR BKN008
     FM251500 17013KT P6SM BKN015
     FM251900 18015KT 3SM SHRA VCTS OVC022CB
     FM252200 22011KT P6SM SCT025 OVC100
     FM260300 16011KT P6SM VCTS OVC018CB=



000
FTUS44 KFWD 250903 AAA
TAFACT
TAF AMD
KACT 250903Z 2509/2606 16009KT P6SM OVC010
     FM251100 15009KT 5SM BR BKN008
     FM251600 17014KT P6SM BKN016
     FM251800 22011KT 3SM SHRA VCTS OVC022CB
     FM252100 18011KT P6SM SCT025 OVC100
     FM260300 16010KT P6SM OVC022=



000
FTUS44 KFWD 250903 AAA
TAFDFW
TAF AMD
KDFW 250903Z 2509/2612 17008KT P6SM SCT008 BKN012
     FM251100 15010KT 5SM BR BKN008
     FM251500 17013KT P6SM BKN015
     FM251900 18015KT 3SM SHRA VCTS OVC022CB
     FM252200 22011KT P6SM SCT025 OVC100
     FM260300 16011KT P6SM VCTS OVC018CB
     FM260600 16010KT P6SM OVC022=



000
FTUS44 KFWD 250903 AAA
TAFFTW
TAF AMD
KFTW 250903Z 2509/2606 17008KT P6SM SCT008 BKN012
     FM251100 15010KT 5SM BR BKN008
     FM251500 17013KT P6SM BKN015
     FM251900 18015KT 3SM SHRA VCTS OVC022CB
     FM252200 22011KT P6SM SCT025 OVC100
     FM260300 16011KT P6SM VCTS OVC018CB=



000
FTUS44 KFWD 250520
TAFFTW
TAF
KFTW 250520Z 2506/2606 14008KT P6SM FEW035 SCT100
     FM250800 15010KT P6SM BKN015
     FM251100 15010KT 3SM BR BKN008
     FM251500 17013KT P6SM BKN015
     FM251900 18015KT 3SM SHRA VCTS OVC022CB
     FM252200 22011KT P6SM SCT025 OVC100
     FM260300 16011KT P6SM VCTS OVC018CB=



000
FTUS44 KFWD 250520
TAFDFW
TAF
KDFW 250520Z 2506/2612 14008KT P6SM FEW035 SCT100
     FM250800 15010KT P6SM BKN015
     FM251100 15010KT 3SM BR BKN008
     FM251500 17013KT P6SM BKN015
     FM251900 18015KT 3SM SHRA VCTS OVC022CB
     FM252200 22011KT P6SM SCT025 OVC100
     FM260300 16011KT P6SM VCTS OVC018CB
     FM260600 16010KT P6SM OVC022=



000
FTUS44 KFWD 250520
TAFACT
TAF
KACT 250520Z 2506/2606 15008KT P6SM SCT025 BKN040
     FM250800 15008KT 6SM BR BKN015
     FM251100 15009KT 5SM BR BKN008
     FM251600 17014KT P6SM BKN016
     FM251800 22011KT 3SM SHRA VCTS OVC022CB
     FM252100 18011KT P6SM SCT025 OVC100
     FM260300 16010KT P6SM OVC022=



000
FTUS44 KFWD 250345 AAA
TAFFTW
TAF AMD
KFTW 250345Z 2504/2524 13008KT P6SM FEW035 SCT100
     FM250600 17013KT P6SM BKN015
     FM250900 17010KT 5SM BR BKN008
     FM251500 18013KT P6SM BKN015
     FM251900 18015KT 3SM SHRA VCTS OVC022CB
     FM252200 22011KT P6SM SCT025 OVC100=



000
FTUS44 KFWD 250345 AAA
TAFACT
TAF AMD
KACT 250345Z 2504/2524 15008KT P6SM SCT025 BKN040
     FM250600 17011KT 6SM BR BKN015
     FM250800 18013KT 5SM BR BKN008
     FM251600 17014KT P6SM BKN016
     FM251800 22011KT 3SM SHRA VCTS OVC022CB
     FM252100 22011KT P6SM SCT025 OVC100=



000
FTUS44 KFWD 250345 AAA
TAFDFW
TAF AMD
KDFW 250345Z 2504/2606 14008KT P6SM FEW035 SCT100
     FM250600 17013KT P6SM BKN015
     FM250900 17010KT 5SM BR BKN008
     FM251500 18013KT P6SM BKN015
     FM251900 18015KT 3SM SHRA VCTS OVC022CB
     FM252200 22011KT P6SM SCT025 OVC100
     FM260300 16011KT P6SM VCTS OVC018CB=



000
FTUS44 KFWD 242341
TAFACT
TAF
KACT 242341Z 2500/2524 18016KT P6SM SCT025 BKN040
     FM250600 17011KT 6SM BR BKN015
     FM250800 18013KT 5SM BR BKN008
     FM251600 17014KT P6SM BKN016
     FM251800 22011KT 3SM SHRA VCTS OVC022CB
     FM252100 22011KT P6SM SCT025 OVC100=



000
FTUS44 KFWD 242341
TAFDFW
TAF
KDFW 242341Z 2500/2606 19015KT P6SM FEW035 SCT100
     FM250600 17013KT P6SM BKN015
     FM250900 17010KT 5SM BR BKN008
     FM251500 18013KT P6SM BKN015
     FM251900 18015KT 3SM SHRA VCTS OVC022CB
     FM252200 22011KT P6SM SCT025 OVC100
     FM260300 16011KT P6SM VCTS OVC018CB=



000
FTUS44 KFWD 242341
TAFFTW
TAF
KFTW 242341Z 2500/2524 19015KT P6SM FEW035 SCT100
     FM250600 17013KT P6SM BKN015
     FM250900 17010KT 5SM BR BKN008
     FM251500 18013KT P6SM BKN015
     FM251900 18015KT 3SM SHRA VCTS OVC022CB
     FM252200 22011KT P6SM SCT025 OVC100=



000
FTUS44 KFWD 242341
TAFACT
TAF
KACT 242341Z 2500/2524 18016KT P6SM SCT025 BKN040
     FM250600 17011KT 6SM BR BKN015
     FM250800 18013KT 5SM BR BKN008
     FM251600 17014KT P6SM BKN016
     FM251800 22011KT 3SM SHRA VCTS OVC022CB
     FM252100 22011KT P6SM SCT025 OVC100=



000
FTUS44 KFWD 242341
TAFDFW
TAF
KDFW 242341Z 2500/2606 19015KT P6SM FEW035 SCT100
     FM250600 17013KT P6SM BKN015
     FM250900 17010KT 5SM BR BKN008
     FM251500 18013KT P6SM BKN015
     FM251900 18015KT 3SM SHRA VCTS OVC022CB
     FM252200 22011KT P6SM SCT025 OVC100
     FM260300 16011KT P6SM VCTS OVC018CB=



000
FTUS44 KFWD 242341
TAFFTW
TAF
KFTW 242341Z 2500/2524 19015KT P6SM FEW035 SCT100
     FM250600 17013KT P6SM BKN015
     FM250900 17010KT 5SM BR BKN008
     FM251500 18013KT P6SM BKN015
     FM251900 18015KT 3SM SHRA VCTS OVC022CB
     FM252200 22011KT P6SM SCT025 OVC100=



000
FTUS44 KFWD 242059 AAC
TAFACT
TAF AMD
KACT 242059Z 2421/2518 20005KT P6SM BKN045 OVC060
     FM242200 18016KT P6SM SCT025 BKN040
     FM250600 17011KT 6SM BR BKN015
     FM250800 18013KT 5SM BR BKN008
     FM251600 17014KT P6SM BKN016=



000
FTUS44 KFWD 242059 AAB
TAFFTW
TAF AMD
KFTW 242059Z 2421/2518 18012KT P6SM FEW050 SCT100
     FM250600 17013KT P6SM BKN015
     FM250900 17010KT 5SM BR BKN008
     FM251600 18013KT P6SM BKN015=



000
FTUS44 KFWD 242059 AAB
TAFDFW
TAF AMD
KDFW 242059Z 2421/2524 19015KT P6SM FEW035 SCT100
     FM250600 17013KT P6SM BKN015
     FM250900 17010KT 5SM BR BKN008
     FM251600 18013KT P6SM BKN015
     FM251800 18015KT 3SM TSRA BR SCT010 OVC015CB
     FM252200 17012KT P6SM BKN100=



000
FTUS44 KFWD 241957 AAB
TAFACT
TAF AMD
KACT 241957Z 2420/2518 20005KT P6SM VCSH BKN045 OVC060
     FM242100 18016KT P6SM BKN050
     FM250600 17011KT 6SM BR BKN015
     FM250800 18013KT 5SM BR BKN008
     FM251600 17014KT P6SM BKN016=



000
FTUS44 KFWD 241912 AAA
TAFACT
TAF AMD
KACT 241912Z 2419/2518 20005KT P6SM VCSH BKN020 OVC060
     FM242000 13012KT P6SM SCT018 BKN035
     FM242200 18016KT P6SM SCT025 BKN050
     FM250600 17011KT 6SM BR BKN015
     FM250800 18013KT 5SM BR BKN008
     FM251600 17014KT P6SM BKN016=



000
FTUS44 KFWD 241911 AAA
TAFDFW
TAF AMD
KDFW 241911Z 2419/2524 20010KT P6SM -RA VCSH FEW035 BKN100
     FM242100 19013KT P6SM FEW020 BKN040 OVC150
     FM250000 16011KT P6SM BKN050
     FM250600 17013KT P6SM BKN015
     FM250900 17010KT 5SM BR BKN008
     FM251600 18013KT P6SM BKN015
     FM251800 18015KT 3SM TSRA BR SCT010 OVC015CB
     FM252200 17012KT P6SM BKN100=



000
FTUS44 KFWD 241911 AAA
TAFDFW
TAF AMD
KDFW 241911Z 2419/2524 20010KT P6SM -RA VCSH FEW035 BKN100
     FM242100 19013KT P6SM FEW020 BKN040 OVC150
     FM250000 16011KT P6SM BKN050
     FM250600 17013KT P6SM BKN015
     FM250900 17010KT 5SM BR BKN008
     FM251600 18013KT P6SM BKN015
     FM251800 18015KT 3SM TSRA BR SCT010 OVC015CB
     FM252200 17012KT P6SM BKN100=



000
FTUS44 KFWD 241901 AAA
TAFFTW
TAF AMD
KFTW 241901Z 2419/2518 20010KT P6SM -RA FEW080 OVC110
     FM242100 19013KT P6SM SCT050 OVC100
     FM250000 16011KT P6SM BKN100
     FM250600 17013KT P6SM BKN015
     FM250900 17010KT 5SM BR BKN008
     FM251600 18013KT P6SM BKN015=



000
FTUS44 KFWD 241901 AAA
TAFFTW
TAF AMD
KFTW 241901Z 2419/2518 20010KT P6SM -RA FEW080 OVC110
     FM242100 19013KT P6SM SCT050 OVC100
     FM250000 16011KT P6SM BKN100
     FM250600 17013KT P6SM BKN015
     FM250900 17010KT 5SM BR BKN008
     FM251600 18013KT P6SM BKN015=



000
FTUS44 KFWD 241723
TAFFTW
TAF
KFTW 241723Z 2418/2518 24010KT P6SM FEW013 SCT025 OVC040
      TEMPO 2418/2421 5SM SHRA BR SCT015 BKN025
     FM242100 19013KT P6SM VCSH FEW020 BKN040 OVC150
     FM250000 16011KT P6SM BKN050
     FM250600 17013KT P6SM BKN015
     FM250900 17010KT 5SM BR BKN008
     FM251600 18013KT P6SM BKN015=



000
FTUS44 KFWD 241723
TAFDFW
TAF
KDFW 241723Z 2418/2524 24010KT P6SM FEW013 SCT025 OVC035
      TEMPO 2418/2421 5SM SHRA BR SCT015 BKN025
     FM242100 19013KT P6SM VCSH FEW020 BKN040 OVC150
     FM250000 16011KT P6SM BKN050
     FM250600 17013KT P6SM BKN015
     FM250900 17010KT 5SM BR BKN008
     FM251600 18013KT P6SM BKN015
     FM251800 18015KT 3SM TSRA BR SCT010 OVC015CB
     FM252200 17012KT P6SM BKN100=



000
FTUS44 KFWD 241723
TAFACT
TAF
KACT 241723Z 2418/2518 20005KT P6SM VCSH SCT005 OVC012
      TEMPO 2418/2420 5SM -SHRA BR OVC007
     FM242000 13012KT P6SM VCSH BKN025
     FM242200 18016KT P6SM SCT025 BKN050
     FM250600 17011KT 6SM BR BKN015
     FM250800 18013KT 5SM BR BKN008
     FM251600 17014KT P6SM BKN016=



000
FTUS44 KFWD 241641 AAE
TAFDFW
TAF AMD
KDFW 241641Z 2417/2518 25010KT P6SM SCT013 BKN021 OVC100
      TEMPO 2418/2421 5SM SHRA BR SCT018 BKN035
     FM242100 19013KT P6SM VCSH SCT020 BKN040 OVC150
     FM250000 16011KT P6SM VCSH BKN050
     FM250600 17013KT P6SM BKN015
     FM251000 17010KT 5SM BR BKN008=



000
FTUS44 KFWD 241641 AAF
TAFACT
TAF AMD
KACT 241641Z 2417/2512 20005KT P6SM VCSH SCT005 OVC012
      TEMPO 2417/2419 5SM -SHRA BR OVC005
     FM241900 13012KT P6SM BKN025
     FM242100 18016KT P6SM VCSH SCT025 BKN050
     FM250600 17011KT 6SM BR BKN015
     FM250800 18013KT 5SM BR BKN008=



000
FTUS44 KFWD 241641 AAE
TAFFTW
TAF AMD
KFTW 241641Z 2417/2512 25010KT P6SM SCT013 BKN021 OVC100
      TEMPO 2418/2421 5SM SHRA BR SCT018 BKN035
     FM242100 19013KT P6SM VCSH SCT020 BKN040 OVC150
     FM250000 16011KT P6SM VCSH BKN050
     FM250600 17013KT P6SM BKN015
     FM251000 17010KT 5SM BR BKN008=



000
FTUS44 KFWD 241641 AAF
TAFACT
TAF AMD
KACT 241641Z 2417/2512 20005KT P6SM VCSH SCT005 OVC012
      TEMPO 2417/2419 5SM -SHRA BR OVC005
     FM241900 13012KT P6SM BKN025
     FM242100 18016KT P6SM VCSH SCT025 BKN050
     FM250600 17011KT 6SM BR BKN015
     FM250800 18013KT 5SM BR BKN008=



000
FTUS44 KFWD 241641 AAE
TAFFTW
TAF AMD
KFTW 241641Z 2417/2512 25010KT P6SM SCT013 BKN021 OVC100
      TEMPO 2418/2421 5SM SHRA BR SCT018 BKN035
     FM242100 19013KT P6SM VCSH SCT020 BKN040 OVC150
     FM250000 16011KT P6SM VCSH BKN050
     FM250600 17013KT P6SM BKN015
     FM251000 17010KT 5SM BR BKN008=



000
FTUS44 KFWD 241555 AAE
TAFACT
TAF AMD
KACT 241555Z 2416/2512 20005KT P6SM VCSH SCT005 OVC012
      TEMPO 2416/2418 5SM -SHRA BR OVC005
     FM241800 13012KT P6SM BKN025
     FM242100 18016KT P6SM VCSH SCT025 BKN050
     FM250600 17011KT 6SM BR BKN015
     FM250800 18013KT 5SM BR BKN008=



000
FTUS44 KFWD 241535 AAD
TAFACT
TAF AMD
KACT 241535Z 2416/2512 20005KT P6SM VCSH BKN012 OVC018
      TEMPO 2416/2418 5SM -SHRA BR SCT015 BKN027
     FM241800 13012KT P6SM BKN025
     FM242100 18016KT P6SM VCSH SCT025 BKN050
     FM250600 17011KT 6SM BR BKN015
     FM250800 18013KT 5SM BR BKN008=



000
FTUS44 KFWD 241535 AAD
TAFFTW
TAF AMD
KFTW 241535Z 2416/2512 12005KT P6SM FEW010 OVC100
      TEMPO 2417/2419 5SM SHRA BR SCT008 BKN020
     FM241900 15010KT P6SM VCTS SCT012 BKN025CB
     FM242000 19013KT P6SM VCSH SCT020 BKN040 OVC150
     FM250000 16011KT P6SM VCSH BKN050
     FM250600 17013KT P6SM BKN015
     FM251000 17010KT 5SM BR BKN008=



000
FTUS44 KFWD 241535 AAD
TAFDFW
TAF AMD
KDFW 241535Z 2416/2518 12008KT P6SM BKN090
      TEMPO 2417/2419 5SM SHRA BR SCT008 BKN020
     FM241900 15010KT P6SM VCTS SCT012 BKN025CB
     FM242000 19013KT P6SM VCSH SCT020 BKN040 OVC150
     FM250000 16011KT P6SM VCSH BKN050
     FM250600 17013KT P6SM BKN015
     FM251000 17010KT 5SM BR BKN008=



000
FTUS44 KFWD 241535 AAD
TAFFTW
TAF AMD
KFTW 241535Z 2416/2512 12005KT P6SM FEW010 OVC100
      TEMPO 2417/2419 5SM SHRA BR SCT008 BKN020
     FM241900 15010KT P6SM VCTS SCT012 BKN025CB
     FM242000 19013KT P6SM VCSH SCT020 BKN040 OVC150
     FM250000 16011KT P6SM VCSH BKN050
     FM250600 17013KT P6SM BKN015
     FM251000 17010KT 5SM BR BKN008=



000
FTUS44 KFWD 241535 AAD
TAFDFW
TAF AMD
KDFW 241535Z 2416/2518 12008KT P6SM BKN090
      TEMPO 2417/2419 5SM SHRA BR SCT008 BKN020
     FM241900 15010KT P6SM VCTS SCT012 BKN025CB
     FM242000 19013KT P6SM VCSH SCT020 BKN040 OVC150
     FM250000 16011KT P6SM VCSH BKN050
     FM250600 17013KT P6SM BKN015
     FM251000 17010KT 5SM BR BKN008=



000
FTUS44 KFWD 241535 AAD
TAFACT
TAF AMD
KACT 241535Z 2416/2512 20005KT P6SM VCSH BKN012 OVC018
      TEMPO 2416/2418 5SM -SHRA BR SCT015 BKN027
     FM241800 13012KT P6SM BKN025
     FM242100 18016KT P6SM VCSH SCT025 BKN050
     FM250600 17011KT 6SM BR BKN015
     FM250800 18013KT 5SM BR BKN008=



000
FTUS44 KFWD 241454 AAC
TAFACT
TAF AMD
KACT 241454Z 2415/2512 07005KT P6SM VCSH BKN012 OVC018
      TEMPO 2415/2418 5SM -SHRA BR SCT015 BKN027
     FM241800 13012KT P6SM BKN025
     FM242100 18016KT P6SM VCSH SCT025 BKN050
     FM250600 17011KT 6SM BR BKN015
     FM250800 18013KT 5SM BR BKN008=



000
FTUS44 KFWD 241445 CCA
TAFDFW
TAF COR
KDFW 241445Z 2415/2518 14007KT P6SM VCSH FEW007 BKN070
      TEMPO 2416/2417 6SM BR BKN007
     FM241700 15010KT P6SM VCTS SCT012 BKN025CB
     FM242000 19013KT P6SM VCSH SCT020 BKN040 OVC150
     FM250000 16011KT P6SM VCSH BKN050
     FM250600 17013KT P6SM BKN015
     FM251000 17010KT 5SM BR BKN008=



000
FTUS44 KFWD 241445 CCA
TAFDFW
TAF COR
KDFW 241445Z 2415/2518 14007KT P6SM VCSH FEW007 BKN070
      TEMPO 2416/2417 6SM BR BKN007
     FM241700 15010KT P6SM VCTS SCT012 BKN025CB
     FM242000 19013KT P6SM VCSH SCT020 BKN040 OVC150
     FM250000 16011KT P6SM VCSH BKN050
     FM250600 17013KT P6SM BKN015
     FM251000 17010KT 5SM BR BKN008=



000
FTUS44 KFWD 241441 AAC
TAFDFW
TAF AMD
KDFW 241441Z 2415/2518 14007KT P6SM FEW007 BKN070
      TEMPO 2416/2417 6SM BR BKN007
     FM241700 15010KT P6SM VCTS SCT012 BKN025CB
     FM242000 19013KT P6SM VCSH SCT020 BKN040 OVC150
     FM250000 16011KT P6SM VCSH BKN050
     FM250600 17013KT P6SM BKN015
     FM251000 17010KT 5SM BR BKN008=



000
FTUS44 KFWD 241431 AAC
TAFFTW
TAF AMD
KFTW 241431Z 2415/2512 13010KT P6SM VCSH BKN009
      TEMPO 2415/2416 5SM -SHRA
     FM241600 15010KT P6SM SCT012 BKN025
     FM242000 19013KT P6SM VCSH SCT020 BKN040 OVC150
     FM250000 16011KT P6SM VCSH BKN050
     FM250600 17013KT P6SM BKN015
     FM251000 17010KT 5SM BR BKN008=



    US Dept of Commerce
    National Oceanic and Atmospheric Administration
    National Weather Service
    1325 East West Highway
    Silver Spring, MD 20910
    Page Author: NWS Internet Services Team
Disclaimer
Information Quality
Credits
Glossary
Privacy Policy
Freedom of Information Act (FOIA)
About Us
Career Opportunities